Mc Call Municipal Airport Mc Call US
ICAO: KMYL
IATA: MYL
Category: Medium
Scheduled Services: No

Elevation: 5024 ft
TransAlt. 18000 ft.

Airport Communications:
ASOS:119.925
SALT LAKE CITY CNTR:128.05
BOISE RDO:122.35
CTAF/UNICOM:122.8

KMYL Zoom In..

Runways:

(A) RW 16 length 6108 ft width 75 ft
---- / hdg 162

(B) RW 34 length 6108 ft width 75 ft
---- / hdg 342

Location; KMYL
Day. 23 / Time. 21.51 Zulu
* Altimeter: 29.87
* Temperature: 18° c. 64.4°f.
* Wind from: 190° Speed 04 kn.
Dewpoint: 09° c.
Visibility: 10 Statute Miles.
Clouds: Few 6000 ft.
Clouds: Broken 9000 ft.
Conditions: Light Rain.

KMYL 232151Z AUTO 19004KT 10SM -RA FEW060 BKN090 18/09 A2987 RMK AO2 RAB46 SLP088 P0000 T01830094


Wind From 190°
Speed 04 kn.

 
 
jpsmedia.com for Web Design SOUNDCLOUD worldairports.se 2018   terms of use